createdAt,value
2023-04-27T00:03:16.701Z,1022.502
2023-04-27T00:08:16.294Z,1022.466
2023-04-27T00:13:16.060Z,1022.485
2023-04-27T00:18:16.077Z,1022.471
2023-04-27T00:23:16.214Z,1022.387
2023-04-27T00:28:16.328Z,1022.404
2023-04-27T00:33:16.488Z,1022.419
2023-04-27T00:38:16.275Z,1022.366
2023-04-27T00:43:16.527Z,1022.337
2023-04-27T00:48:16.288Z,1022.38
2023-04-27T00:53:16.745Z,1022.369
2023-04-27T00:58:16.366Z,1022.396
2023-04-27T01:03:16.132Z,1022.347
2023-04-27T01:08:16.137Z,1022.336
2023-04-27T01:13:16.173Z,1022.4
2023-04-27T01:18:16.146Z,1022.408
2023-04-27T01:23:17.243Z,1022.396
2023-04-27T01:28:16.101Z,1022.337
2023-04-27T01:33:15.927Z,1022.303
2023-04-27T01:38:16.141Z,1022.194
2023-04-27T01:43:16.111Z,1022.136
2023-04-27T01:48:16.818Z,1022.108
2023-04-27T01:53:16.095Z,1022.024
2023-04-27T01:58:16.014Z,1022.038
2023-04-27T02:03:16.182Z,1022.028
2023-04-27T02:08:15.999Z,1021.975
2023-04-27T02:13:16.713Z,1021.922
2023-04-27T02:18:16.194Z,1021.982
2023-04-27T02:23:16.358Z,1022.029
2023-04-27T02:28:16.129Z,1021.972
2023-04-27T02:33:16.504Z,1021.919
2023-04-27T02:38:16.242Z,1021.888
2023-04-27T02:43:16.049Z,1021.781
2023-04-27T02:48:15.980Z,1021.873
2023-04-27T02:53:16.379Z,1021.909
2023-04-27T02:58:16.609Z,1021.974
2023-04-27T03:03:16.342Z,1021.964
2023-04-27T03:08:16.181Z,1021.931
2023-04-27T03:13:16.022Z,1022.06
2023-04-27T03:18:16.138Z,1022.132
2023-04-27T03:23:16.198Z,1022.063
2023-04-27T03:28:16.522Z,1022.073
2023-04-27T03:33:16.009Z,1022.078
2023-04-27T03:38:16.163Z,1022.086
2023-04-27T03:43:16.146Z,1022.011
2023-04-27T03:48:16.342Z,1022.018
2023-04-27T03:53:16.556Z,1022.074
2023-04-27T03:58:18.294Z,1022.107
2023-04-27T04:03:18.786Z,1022.11
2023-04-27T04:08:17.093Z,1022.107
2023-04-27T04:13:16.129Z,1022.036
2023-04-27T04:18:15.929Z,1022.056
2023-04-27T04:23:16.196Z,1022.158
2023-04-27T04:28:16.273Z,1022.221
2023-04-27T04:33:17.970Z,1022.318
2023-04-27T04:38:15.976Z,1022.29
2023-04-27T04:43:16.071Z,1022.347
2023-04-27T04:48:18.070Z,1022.375
2023-04-27T04:53:16.001Z,1022.37
2023-04-27T04:58:17.481Z,1022.35
2023-04-27T05:03:16.236Z,1022.35
2023-04-27T05:08:17.069Z,1022.286
2023-04-27T05:13:15.959Z,1022.265
2023-04-27T05:18:16.074Z,1022.337
2023-04-27T05:23:16.312Z,1022.429
2023-04-27T05:28:16.499Z,1022.419
2023-04-27T05:33:17.067Z,1022.45
2023-04-27T05:38:17.518Z,1022.448
2023-04-27T05:43:16.001Z,1022.423
2023-04-27T05:48:16.047Z,1022.418
2023-04-27T05:53:17.218Z,1022.341
2023-04-27T05:58:16.166Z,1022.404
2023-04-27T06:03:16.484Z,1022.388
2023-04-27T06:08:17.506Z,1022.349
2023-04-27T06:13:16.443Z,1022.41
2023-04-27T06:18:16.886Z,1022.436
2023-04-27T06:23:16.174Z,1022.453
2023-04-27T06:28:16.077Z,1022.501
2023-04-27T06:33:15.980Z,1022.411
2023-04-27T06:38:17.295Z,1022.516
2023-04-27T06:43:18.436Z,1022.448
2023-04-27T06:48:16.914Z,1022.44
2023-04-27T06:53:17.300Z,1022.364
2023-04-27T06:58:15.943Z,1022.302
2023-04-27T07:03:16.227Z,1022.36
2023-04-27T07:08:16.651Z,1022.373
2023-04-27T07:13:16.033Z,1022.414
2023-04-27T07:18:16.036Z,1022.443
2023-04-27T07:23:16.461Z,1022.489
2023-04-27T07:28:17.187Z,1022.491
2023-04-27T07:33:16.042Z,1022.513
2023-04-27T07:38:17.686Z,1022.503
2023-04-27T07:43:15.895Z,1022.465
2023-04-27T07:48:16.338Z,1022.474
2023-04-27T07:53:16.295Z,1022.438
2023-04-27T07:58:16.349Z,1022.403
2023-04-27T08:03:15.936Z,1022.395
2023-04-27T08:08:17.068Z,1022.372
2023-04-27T08:13:16.096Z,1022.375
2023-04-27T08:18:17.945Z,1022.404
2023-04-27T08:23:15.936Z,1022.402
2023-04-27T08:28:18.537Z,1022.391
2023-04-27T08:33:16.168Z,1022.364
2023-04-27T08:38:16.086Z,1022.391
2023-04-27T08:43:15.913Z,1022.35
2023-04-27T08:48:16.427Z,1022.414
2023-04-27T08:53:24.880Z,1022.419
2023-04-27T08:58:16.474Z,1022.387
2023-04-27T09:03:22.549Z,1022.358
2023-04-27T09:08:16.058Z,1022.27
2023-04-27T09:13:16.165Z,1022.175
2023-04-27T09:18:21.170Z,1022.205
2023-04-27T09:23:26.244Z,1022.101
2023-04-27T09:28:18.492Z,1022.09
2023-04-27T09:35:34.603Z,1022.109
2023-04-27T09:40:34.162Z,1022.075
2023-04-27T09:45:34.293Z,1021.997
2023-04-27T09:50:35.297Z,1022.006
2023-04-27T09:55:39.263Z,1021.989
2023-04-27T10:00:46.157Z,1022.003
2023-04-27T10:05:40.270Z,1022.028
2023-04-27T10:10:34.151Z,1022.042
2023-04-27T10:15:34.190Z,1021.97
2023-04-27T10:20:37.789Z,1021.94
2023-04-27T10:25:40.821Z,1021.961
2023-04-27T10:30:36.531Z,1022.047
2023-04-27T10:35:41.289Z,1022.049
2023-04-27T10:40:36.696Z,1021.989
2023-04-27T10:45:38.377Z,1022.003
2023-04-27T10:50:35.830Z,1021.965
2023-04-27T10:55:37.279Z,1021.939
2023-04-27T11:00:35.335Z,1021.85
2023-04-27T11:05:34.298Z,1021.831
2023-04-27T11:10:35.709Z,1021.806
2023-04-27T11:15:34.270Z,1021.73
2023-04-27T11:20:41.927Z,1021.664
2023-04-27T11:25:35.608Z,1021.648
2023-04-27T11:30:34.239Z,1021.579
2023-04-27T11:35:47.736Z,1021.603
2023-04-27T11:40:41.437Z,1021.593
2023-04-27T11:45:34.616Z,1021.583
2023-04-27T11:50:39.526Z,1021.494
2023-04-27T11:55:33.846Z,1021.453
2023-04-27T12:00:37.260Z,1021.454
2023-04-27T12:05:33.977Z,1021.516
2023-04-27T12:10:35.436Z,1021.502
2023-04-27T12:15:33.999Z,1021.387
2023-04-27T12:20:42.128Z,1021.386
2023-04-27T12:25:34.351Z,1021.325
2023-04-27T12:30:36.008Z,1021.186
2023-04-27T12:35:33.973Z,1021.216
2023-04-27T12:40:36.881Z,1021.273
2023-04-27T12:45:33.985Z,1021.326
2023-04-27T12:50:35.203Z,1021.277
2023-04-27T12:55:34.630Z,1021.198
2023-04-27T13:00:34.882Z,1021.175
2023-04-27T13:05:33.810Z,1021.149
2023-04-27T13:10:33.876Z,1020.987
2023-04-27T13:15:34.181Z,1020.971
2023-04-27T13:20:33.992Z,1020.956
2023-04-27T13:25:34.230Z,1021.018
2023-04-27T13:30:34.212Z,1020.967
2023-04-27T13:35:33.832Z,1020.911
2023-04-27T13:40:33.901Z,1020.857
2023-04-27T13:45:34.129Z,1020.833
2023-04-27T13:50:33.950Z,1020.822
2023-04-27T13:55:33.843Z,1020.751
2023-04-27T14:00:35.814Z,1020.777
2023-04-27T14:05:36.238Z,1020.668
2023-04-27T14:10:33.926Z,1020.64
2023-04-27T14:15:37.126Z,1020.601
2023-04-27T14:20:34.345Z,1020.466
2023-04-27T14:25:34.880Z,1020.337
2023-04-27T14:30:36.688Z,1020.356
2023-04-27T14:35:33.843Z,1020.251
2023-04-27T14:40:37.032Z,1020.091
2023-04-27T14:45:47.853Z,1020.15
2023-04-27T14:50:33.816Z,1020.192
2023-04-27T14:55:33.811Z,1020.084
2023-04-27T15:00:33.976Z,1020.021
2023-04-27T15:05:33.820Z,1019.976
2023-04-27T15:10:33.843Z,1020.007
2023-04-27T15:15:34.043Z,1019.846
2023-04-27T15:20:34.005Z,1019.838
2023-04-27T15:25:33.816Z,1019.803
2023-04-27T15:30:33.843Z,1019.783
2023-04-27T15:35:33.910Z,1019.715
2023-04-27T15:40:35.725Z,1019.609
2023-04-27T15:45:34.722Z,1019.597
2023-04-27T15:50:37.059Z,1019.526
2023-04-27T15:55:36.948Z,1019.481
2023-04-27T16:00:35.055Z,1019.483
2023-04-27T16:05:34.048Z,1019.488
2023-04-27T16:10:34.015Z,1019.418
2023-04-27T16:15:33.998Z,1019.332
2023-04-27T16:20:36.294Z,1019.268
2023-04-27T16:25:34.103Z,1019.055
2023-04-27T16:30:33.723Z,1018.956
2023-04-27T16:35:34.446Z,1018.954
2023-04-27T16:40:33.897Z,1018.882
2023-04-27T16:45:34.121Z,1018.818
2023-04-27T16:50:34.072Z,1018.825
2023-04-27T16:55:33.802Z,1018.881
2023-04-27T17:00:33.878Z,1018.775
2023-04-27T17:05:33.837Z,1018.81
2023-04-27T17:10:36.954Z,1018.829
2023-04-27T17:15:34.425Z,1018.827
2023-04-27T17:20:33.858Z,1018.799
2023-04-27T17:25:33.900Z,1018.773
2023-04-27T17:30:36.990Z,1018.663
2023-04-27T17:35:35.919Z,1018.65
2023-04-27T17:40:36.597Z,1018.666
2023-04-27T17:45:37.353Z,1018.776
2023-04-27T17:50:34.673Z,1018.708
2023-04-27T17:55:33.872Z,1018.619
2023-04-27T18:00:33.974Z,1018.61
2023-04-27T18:05:34.129Z,1018.63
2023-04-27T18:10:36.557Z,1018.533
2023-04-27T18:15:34.514Z,1018.453
2023-04-27T18:20:33.752Z,1018.341
2023-04-27T18:25:33.972Z,1018.31
2023-04-27T18:30:35.128Z,1018.385
2023-04-27T18:35:34.028Z,1018.291
2023-04-27T18:40:36.094Z,1018.148
2023-04-27T18:45:36.830Z,1018.176
2023-04-27T18:50:33.721Z,1018.297
2023-04-27T18:55:33.922Z,1018.338
2023-04-27T19:00:33.810Z,1018.298
2023-04-27T19:05:34.064Z,1018.316
2023-04-27T19:10:33.952Z,1018.254
2023-04-27T19:15:33.716Z,1018.165
2023-04-27T19:20:36.199Z,1018.248
2023-04-27T19:25:33.756Z,1018.334
2023-04-27T19:30:33.949Z,1018.395
2023-04-27T19:35:33.966Z,1018.398
2023-04-27T19:40:36.959Z,1018.34
2023-04-27T19:45:33.759Z,1018.326
2023-04-27T19:50:33.955Z,1018.285
2023-04-27T19:55:34.331Z,1018.24
2023-04-27T20:00:34.143Z,1018.293
2023-04-27T20:05:35.480Z,1018.26
2023-04-27T20:10:34.285Z,1018.162
2023-04-27T20:15:33.845Z,1018.13
2023-04-27T20:20:33.775Z,1018.081
2023-04-27T20:25:33.918Z,1017.954
2023-04-27T20:30:33.897Z,1017.797
2023-04-27T20:35:33.778Z,1017.787
2023-04-27T20:40:35.198Z,1017.713
2023-04-27T20:45:34.117Z,1017.674
2023-04-27T20:50:33.762Z,1017.58
2023-04-27T20:55:34.396Z,1017.485
2023-04-27T21:00:33.781Z,1017.516
2023-04-27T21:05:33.938Z,1017.47
2023-04-27T21:10:35.260Z,1017.443
2023-04-27T21:15:33.850Z,1017.432
2023-04-27T21:20:33.834Z,1017.37
2023-04-27T21:25:35.010Z,1017.3
2023-04-27T21:30:37.506Z,1017.197
2023-04-27T21:35:34.366Z,1017.136
2023-04-27T21:40:33.686Z,1017.049
2023-04-27T21:45:37.791Z,1017.001
2023-04-27T21:50:33.685Z,1016.875
2023-04-27T21:55:34.476Z,1016.893
2023-04-27T22:00:33.683Z,1016.795
2023-04-27T22:05:37.064Z,1016.677
2023-04-27T22:10:33.671Z,1016.611
2023-04-27T22:15:33.823Z,1016.52
2023-04-27T22:20:33.639Z,1016.53
2023-04-27T22:25:33.982Z,1016.52
2023-04-27T22:30:33.791Z,1016.351
2023-04-27T22:35:33.693Z,1016.345
2023-04-27T22:40:34.177Z,1016.369
2023-04-27T22:45:34.482Z,1016.384
2023-04-27T22:50:33.763Z,1016.388
2023-04-27T22:55:33.775Z,1016.277
2023-04-27T23:00:33.796Z,1016.156
2023-04-27T23:05:33.700Z,1016.107
2023-04-27T23:10:34.737Z,1016.119
2023-04-27T23:15:33.657Z,1015.907
2023-04-27T23:20:33.770Z,1015.877
2023-04-27T23:25:35.573Z,1015.736
2023-04-27T23:30:34.392Z,1015.658
2023-04-27T23:35:35.432Z,1015.536
2023-04-27T23:40:33.606Z,1015.59
2023-04-27T23:45:33.714Z,1015.527
2023-04-27T23:50:33.813Z,1015.577
2023-04-27T23:55:34.383Z,1015.516
